Time;durP1;ratioP1;P1;durP2;ratioP2;P2;SDS_P1;SDS_P2;PMS_P1;PMS_P2;Temp;Humidity;BMP_temperature;BMP_pressure;BME280_temperature;BME280_humidity;BME280_pressure;Samples;Min_cycle;Max_cycle;Signal;HPM_P1;HPM_P2
2023/10/13 00:02:23;;;;;;;10.90;3.10;;;19.30;1.00;;;;;;5032305;28;20439;-74
2023/10/13 00:04:52;;;;;;;9.00;2.85;;;19.30;99.90;;;;;;5041862;28;20419;-74
2023/10/13 00:07:19;;;;;;;6.77;2.60;;;19.30;99.90;;;;;;5012259;28;20472;-73
2023/10/13 00:09:48;;;;;;;8.57;3.40;;;19.30;64.60;;;;;;5030204;28;20714;-73
2023/10/13 00:12:14;;;;;;;8.20;2.92;;;19.30;44.10;;;;;;5028982;28;20394;-73
2023/10/13 00:14:41;;;;;;;7.50;3.07;;;19.30;58.40;;;;;;5030529;28;20410;-73
2023/10/13 00:17:32;;;;;;;7.78;2.50;;;19.30;70.90;;;;;;5042491;28;20749;-73
2023/10/13 00:20:00;;;;;;;10.13;4.30;;;19.20;99.90;;;;;;5046187;28;20397;-73
2023/10/13 00:22:30;;;;;;;10.52;2.90;;;19.10;99.90;;;;;;5016920;28;20943;-73
2023/10/13 00:25:03;;;;;;;10.43;3.28;;;19.00;99.90;;;;;;5042914;28;20481;-73
2023/10/13 00:27:29;;;;;;;9.30;3.20;;;18.90;99.90;;;;;;5041164;28;20471;-73
2023/10/13 00:33:09;;;;;;;8.23;3.53;;;18.90;99.90;;;;;;5008448;28;20447;-72
2023/10/13 00:35:36;;;;;;;9.68;2.95;;;18.80;99.90;;;;;;5033851;28;20744;-72
2023/10/13 00:38:23;;;;;;;10.43;2.80;;;18.70;1.00;;;;;;5049623;28;20501;-72
2023/10/13 00:40:52;;;;;;;10.85;3.13;;;18.60;1.00;;;;;;5051184;28;20386;-72
2023/10/13 00:46:37;;;;;;;8.10;2.90;;;18.40;1.00;;;;;;5049955;28;20859;-72
2023/10/13 00:49:25;;;;;;;10.52;3.75;;;18.30;1.00;;;;;;5052127;28;20443;-72
2023/10/13 00:52:12;;;;;;;8.00;3.00;;;18.30;1.00;;;;;;5051330;28;20452;-72
2023/10/13 00:54:38;;;;;;;9.40;3.63;;;18.20;4.80;;;;;;5047303;28;20405;-72
2023/10/13 00:57:26;;;;;;;9.90;3.65;;;18.10;1.00;;;;;;5037443;28;20397;-72
2023/10/13 01:00:11;;;;;;;9.52;2.78;;;18.20;99.90;;;;;;5043744;28;20859;-72
2023/10/13 01:02:37;;;;;;;8.82;2.72;;;18.30;1.00;;;;;;5032819;28;20408;-72
2023/10/13 01:05:11;;;;;;;7.75;2.63;;;18.20;1.00;;;;;;5040242;28;20988;-72
2023/10/13 01:07:37;;;;;;;8.43;2.50;;;18.20;99.90;;;;;;5028084;28;20418;-72
2023/10/13 01:10:04;;;;;;;6.80;2.45;;;18.30;99.90;;;;;;5028426;28;20399;-72
2023/10/13 01:12:30;;;;;;;7.32;2.72;;;18.20;99.90;;;;;;5030592;28;20896;-74
2023/10/13 01:14:59;;;;;;;9.10;2.67;;;18.30;99.90;;;;;;5028710;28;20672;-74
2023/10/13 01:17:31;;;;;;;8.48;2.53;;;18.30;98.60;;;;;;5029182;28;20741;-74
2023/10/13 01:20:01;;;;;;;6.85;2.58;;;18.10;99.90;;;;;;5030037;28;20885;-74
2023/10/13 01:22:28;;;;;;;7.35;2.00;;;18.00;98.90;;;;;;5028040;28;20399;-74
2023/10/13 01:25:18;;;;;;;8.82;3.10;;;18.00;56.30;;;;;;5029867;28;20502;-74
2023/10/13 01:27:44;;;;;;;8.30;3.23;;;18.00;94.40;;;;;;5039527;28;20392;-73
2023/10/13 01:30:15;;;;;;;7.77;2.90;;;17.90;99.90;;;;;;5044286;28;20475;-74
2023/10/13 01:32:45;;;;;;;7.50;1.80;;;17.90;99.90;;;;;;5031333;28;20428;-74
2023/10/13 01:35:10;;;;;;;7.90;2.80;;;17.90;99.90;;;;;;5039636;28;20403;-74
2023/10/13 01:37:36;;;;;;;11.15;2.80;;;17.80;99.90;;;;;;5029622;28;20395;-74
2023/10/13 01:40:04;;;;;;;6.97;1.83;;;17.70;99.90;;;;;;5028910;28;20391;-75
2023/10/13 01:42:31;;;;;;;6.10;2.00;;;17.70;99.90;;;;;;5012231;28;20394;-74
2023/10/13 01:45:05;;;;;;;6.20;1.88;;;17.40;99.90;;;;;;5028194;28;20477;-74
2023/10/13 01:47:36;;;;;;;7.63;2.37;;;17.30;99.90;;;;;;5024184;28;20405;-74
2023/10/13 01:50:29;;;;;;;8.75;2.42;;;17.30;99.90;;;;;;5027942;28;20908;-75
2023/10/13 01:53:28;;;;;;;8.27;2.58;;;17.40;99.90;;;;;;5026625;28;20484;-74
2023/10/13 01:55:47;;;;;;;9.20;2.58;;;17.50;1.00;;;;;;5019366;28;20420;-74
2023/10/13 01:58:30;;;;;;;8.48;2.45;;;17.50;1.00;;;;;;5038335;28;20489;-74
2023/10/13 02:00:56;;;;;;;5.93;1.70;;;17.60;1.00;;;;;;5029540;28;20401;-74
2023/10/13 02:03:23;;;;;;;6.50;1.88;;;17.60;1.00;;;;;;5028915;28;20755;-74
2023/10/13 02:05:49;;;;;;;6.80;2.10;;;17.50;1.00;;;;;;5039042;28;20844;-74
2023/10/13 02:08:24;;;;;;;7.38;2.72;;;17.40;1.00;;;;;;5033849;28;20383;-73
2023/10/13 02:10:55;;;;;;;7.60;2.17;;;17.40;1.00;;;;;;5015636;28;20481;-73
2023/10/13 02:13:22;;;;;;;7.50;2.03;;;17.40;1.00;;;;;;5015847;28;20398;-74
2023/10/13 02:16:18;;;;;;;6.30;1.70;;;17.40;1.00;;;;;;5034428;28;20410;-74
2023/10/13 02:19:15;;;;;;;10.82;2.15;;;17.50;1.00;;;;;;5046592;28;20398;-74
2023/10/13 02:21:58;;;;;;;7.88;2.72;;;17.40;1.00;;;;;;5042061;28;20395;-74
2023/10/13 02:24:33;;;;;;;7.33;1.80;;;17.50;1.00;;;;;;5050043;28;20452;-74
2023/10/13 02:27:04;;;;;;;7.20;2.05;;;17.60;1.00;;;;;;5021742;28;20405;-74
2023/10/13 02:29:30;;;;;;;7.22;1.75;;;17.70;1.00;;;;;;5045436;28;20400;-73
2023/10/13 02:31:57;;;;;;;7.45;2.35;;;17.60;1.00;;;;;;5038868;28;20391;-73
2023/10/13 02:34:24;;;;;;;6.97;1.90;;;17.70;1.00;;;;;;5047574;28;20814;-73
2023/10/13 02:36:50;;;;;;;7.95;2.17;;;17.70;1.00;;;;;;5031291;28;20444;-74
2023/10/13 02:39:25;;;;;;;7.20;1.70;;;17.70;1.00;;;;;;5014568;28;20403;-74
2023/10/13 02:41:55;;;;;;;11.35;1.95;;;17.70;1.00;;;;;;5032434;28;20452;-74
2023/10/13 02:44:33;;;;;;;7.38;2.20;;;17.70;1.00;;;;;;5031686;28;20419;-74
2023/10/13 02:46:59;;;;;;;6.57;1.90;;;17.70;1.00;;;;;;5040535;28;20427;-74
2023/10/13 02:49:34;;;;;;;7.33;1.93;;;17.50;1.00;;;;;;5045846;28;20394;-74
2023/10/13 02:52:07;;;;;;;8.55;2.55;;;17.60;1.00;;;;;;5022442;28;20411;-74
2023/10/13 02:54:39;;;;;;;6.30;1.80;;;17.50;1.00;;;;;;5051036;28;20535;-74
2023/10/13 02:57:05;;;;;;;9.20;1.70;;;17.50;1.00;;;;;;5033533;28;20423;-74
2023/10/13 02:59:39;;;;;;;7.00;2.22;;;17.50;1.00;;;;;;5041325;28;20842;-74
2023/10/13 03:02:17;;;;;;;7.20;2.03;;;17.40;1.00;;;;;;5045613;28;20407;-73
2023/10/13 03:04:44;;;;;;;6.43;2.03;;;17.40;1.00;;;;;;5046278;28;20836;-73
2023/10/13 03:07:09;;;;;;;7.15;1.80;;;17.30;1.00;;;;;;5030219;28;20431;-73
2023/10/13 03:09:37;;;;;;;7.60;1.97;;;17.40;1.00;;;;;;5029973;28;20818;-73
2023/10/13 03:12:04;;;;;;;7.15;2.20;;;17.50;1.00;;;;;;5029927;28;20391;-73
2023/10/13 03:14:32;;;;;;;6.63;2.33;;;17.50;1.00;;;;;;5030133;28;20469;-73
2023/10/13 03:17:08;;;;;;;7.28;2.28;;;17.50;1.00;;;;;;5035554;28;20790;-73
2023/10/13 03:19:36;;;;;;;6.80;2.40;;;17.50;1.00;;;;;;5029825;28;20490;-73
2023/10/13 03:22:10;;;;;;;5.93;1.95;;;17.50;1.00;;;;;;5014071;28;20427;-74
2023/10/13 03:24:36;;;;;;;8.57;1.83;;;17.40;1.00;;;;;;5030799;28;20942;-74
2023/10/13 03:27:09;;;;;;;6.15;1.90;;;17.40;1.00;;;;;;5030776;28;20383;-74
2023/10/13 03:29:45;;;;;;;6.67;2.30;;;17.30;1.00;;;;;;5009915;28;20417;-73
2023/10/13 03:32:15;;;;;;;7.07;2.55;;;17.30;1.00;;;;;;5013748;28;20395;-73
2023/10/13 03:37:38;;;;;;;7.57;1.92;;;17.40;1.00;;;;;;5030794;28;20411;-74
2023/10/13 03:45:47;;;;;;;7.10;2.00;;;17.20;1.00;;;;;;5031827;28;20419;-74
2023/10/13 03:48:28;;;;;;;9.50;2.28;;;17.30;1.00;;;;;;5028297;28;20489;-73
2023/10/13 03:51:03;;;;;;;7.70;1.77;;;17.20;1.00;;;;;;5027120;28;20420;-73
2023/10/13 03:53:33;;;;;;;9.68;2.80;;;17.10;1.00;;;;;;5018002;28;20556;-73
2023/10/13 03:56:08;;;;;;;8.23;2.58;;;17.20;1.00;;;;;;5024242;28;20408;-74
2023/10/13 03:58:39;;;;;;;6.85;1.92;;;17.20;1.00;;;;;;5016637;28;20912;-74
2023/10/13 04:01:09;;;;;;;7.85;1.90;;;17.20;1.00;;;;;;5019668;28;20414;-74
2023/10/13 04:03:38;;;;;;;6.57;2.03;;;17.20;1.00;;;;;;5029074;28;20785;-73
2023/10/13 04:06:07;;;;;;;8.18;2.42;;;17.30;1.00;;;;;;5028276;28;20419;-73
2023/10/13 04:16:54;;;;;;;13.40;3.40;;;17.40;1.00;;;;;;5030377;28;20847;-73
2023/10/13 04:19:22;;;;;;;7.80;1.90;;;17.40;1.00;;;;;;5030311;28;20467;-73
2023/10/13 04:21:59;;;;;;;7.23;2.07;;;17.50;1.00;;;;;;5029387;28;20901;-73
2023/10/13 04:27:29;;;;;;;6.38;2.00;;;17.60;1.00;;;;;;5039708;28;20430;-72
2023/10/13 04:30:10;;;;;;;9.18;2.30;;;17.60;99.90;;;;;;5048817;28;20557;-72
2023/10/13 04:32:46;;;;;;;7.60;2.00;;;17.60;99.90;;;;;;5047350;28;20409;-72
2023/10/13 04:40:23;;;;;;;7.30;2.10;;;17.40;99.90;;;;;;5029173;28;20411;-72
2023/10/13 04:42:58;;;;;;;7.10;1.73;;;17.30;1.00;;;;;;5029392;28;20407;-72
2023/10/13 04:50:46;;;;;;;6.25;1.75;;;17.30;1.00;;;;;;5030240;28;20389;-72
2023/10/13 04:53:59;;;;;;;8.50;2.70;;;17.30;99.90;;;;;;5028464;28;20786;-72
2023/10/13 04:59:35;;;;;;;10.55;2.63;;;17.20;99.90;;;;;;5028935;28;20414;-72
2023/10/13 05:05:21;;;;;;;7.43;2.10;;;17.20;99.90;;;;;;5029538;28;21079;-72
2023/10/13 06:29:36;;;;;;;7.03;2.60;;;19.10;99.90;;;;;;5032508;28;20900;-74
2023/10/13 06:32:01;;;;;;;5.43;1.60;;;19.20;99.90;;;;;;5032915;28;20387;-74
2023/10/13 06:35:31;;;;;;;10.70;1.88;;;19.30;99.90;;;;;;5032214;28;20953;-74
2023/10/13 06:37:30;;;;;;;9.20;2.10;;;19.40;99.90;;;;;;5027440;28;20501;-73
2023/10/13 06:39:57;;;;;;;7.53;2.17;;;19.50;99.90;;;;;;5031941;28;20388;-72
2023/10/13 06:42:27;;;;;;;8.60;1.90;;;19.50;99.90;;;;;;5021249;28;20887;-72
2023/10/13 06:44:54;;;;;;;15.18;2.38;;;19.60;99.90;;;;;;5018415;28;20424;-73
2023/10/13 06:47:22;;;;;;;7.10;2.20;;;19.70;99.90;;;;;;5011470;28;20404;-73
2023/10/13 06:49:51;;;;;;;10.88;2.95;;;19.80;99.90;;;;;;5011544;28;20420;-72
2023/10/13 06:52:19;;;;;;;10.27;2.28;;;19.90;99.90;;;;;;5011747;28;20720;-72
2023/10/13 06:54:46;;;;;;;6.90;2.47;;;20.30;99.90;;;;;;5026494;28;20401;-72
2023/10/13 06:57:20;;;;;;;10.80;2.20;;;20.50;99.90;;;;;;5011678;28;20397;-72
2023/10/13 06:59:48;;;;;;;7.10;2.00;;;20.70;99.90;;;;;;5011923;28;20404;-72
2023/10/13 07:02:23;;;;;;;10.35;2.40;;;20.80;99.90;;;;;;5027080;28;20412;-72
2023/10/13 07:04:56;;;;;;;8.02;2.40;;;21.30;99.90;;;;;;5026987;28;20417;-72
2023/10/13 07:07:25;;;;;;;10.70;1.80;;;22.30;99.90;;;;;;5011396;28;20904;-72
2023/10/13 07:09:58;;;;;;;6.63;1.90;;;23.40;99.90;;;;;;5011398;28;20393;-72
2023/10/13 07:12:26;;;;;;;9.95;3.08;;;24.60;99.90;;;;;;5011563;28;20910;-72
2023/10/13 07:14:51;;;;;;;7.05;2.08;;;26.10;99.90;;;;;;5026791;28;20457;-72
2023/10/13 07:17:23;;;;;;;9.20;2.35;;;27.00;99.90;;;;;;5028270;28;20402;-72
2023/10/13 07:19:53;;;;;;;12.98;2.92;;;27.90;99.90;;;;;;5031268;28;20461;-72
2023/10/13 07:22:20;;;;;;;8.05;2.65;;;28.50;99.90;;;;;;5031062;28;20442;-72
2023/10/13 07:24:49;;;;;;;8.48;2.70;;;28.70;99.90;;;;;;5031012;28;20772;-72
2023/10/13 07:27:24;;;;;;;19.08;2.97;;;28.90;99.90;;;;;;5030934;28;20399;-72
2023/10/13 07:30:14;;;;;;;8.88;2.70;;;29.60;99.90;;;;;;5031283;28;20391;-73
2023/10/13 07:32:45;;;;;;;7.78;3.03;;;29.90;99.90;;;;;;5030849;28;20742;-73
2023/10/13 07:35:15;;;;;;;8.48;2.40;;;30.30;99.90;;;;;;5030905;28;20972;-73
2023/10/13 07:37:41;;;;;;;8.02;2.50;;;30.50;99.90;;;;;;5031077;28;20410;-73
2023/10/13 07:40:39;;;;;;;8.32;2.03;;;30.60;99.90;;;;;;5030903;28;20450;-73
2023/10/13 07:43:09;;;;;;;6.32;2.05;;;30.40;99.90;;;;;;5031041;28;20400;-73
2023/10/13 07:45:37;;;;;;;8.13;2.47;;;30.70;99.90;;;;;;5030924;28;20403;-73
2023/10/13 07:48:19;;;;;;;7.85;2.28;;;30.20;99.90;;;;;;5030909;28;20776;-73
2023/10/13 07:50:58;;;;;;;10.10;1.85;;;29.70;99.90;;;;;;5030332;28;20387;-73
2023/10/13 07:53:23;;;;;;;7.00;2.30;;;29.60;99.90;;;;;;5030739;28;20410;-73
2023/10/13 07:55:56;;;;;;;7.30;1.90;;;29.70;99.90;;;;;;5030706;28;20395;-73
2023/10/13 07:58:25;;;;;;;7.50;2.10;;;30.30;99.90;;;;;;5030108;28;20411;-73
2023/10/13 08:01:06;;;;;;;7.30;2.20;;;31.10;99.90;;;;;;5029139;28;20484;-73
2023/10/13 08:03:43;;;;;;;8.40;2.67;;;31.30;99.90;;;;;;5030591;28;20427;-73
2023/10/13 08:08:38;;;;;;;6.22;1.80;;;32.40;99.90;;;;;;5030563;28;20399;-73
2023/10/13 08:11:11;;;;;;;7.60;2.20;;;32.00;99.90;;;;;;5030333;28;20457;-73
2023/10/13 08:13:46;;;;;;;7.65;1.98;;;32.00;99.90;;;;;;5030658;28;20375;-73
2023/10/13 08:16:21;;;;;;;9.80;2.05;;;32.80;99.90;;;;;;5030314;28;20387;-73
2023/10/13 08:18:52;;;;;;;9.60;2.10;;;33.10;99.90;;;;;;5030158;28;20386;-73
2023/10/13 08:21:31;;;;;;;6.22;1.80;;;32.70;99.90;;;;;;5029735;28;20485;-73
2023/10/13 08:23:58;;;;;;;8.13;2.10;;;32.00;99.90;;;;;;5029873;28;20435;-73
2023/10/13 08:26:29;;;;;;;9.00;2.15;;;31.60;99.90;;;;;;5030228;28;20391;-74
2023/10/13 08:31:42;;;;;;;8.85;2.83;;;30.40;99.90;;;;;;5030081;28;20481;-74
2023/10/13 08:34:15;;;;;;;11.73;1.80;;;29.90;99.90;;;;;;5029681;28;21002;-74
2023/10/13 08:36:41;;;;;;;8.10;2.10;;;30.20;99.90;;;;;;5029835;28;20399;-74
2023/10/13 08:39:57;;;;;;;6.00;1.70;;;31.50;99.90;;;;;;5029616;28;20398;-74
2023/10/13 08:42:13;;;;;;;7.10;2.05;;;30.90;99.90;;;;;;5030111;28;20411;-74
2023/10/13 08:44:45;;;;;;;7.10;2.10;;;31.00;99.90;;;;;;5029857;28;20768;-74
2023/10/13 08:47:18;;;;;;;8.47;1.93;;;31.30;99.90;;;;;;5029186;28;21629;-74
2023/10/13 08:49:50;;;;;;;8.50;2.13;;;30.90;99.90;;;;;;5027832;28;20719;-74
2023/10/13 08:55:35;;;;;;;6.53;1.60;;;30.70;99.90;;;;;;5030090;28;20469;-74
2023/10/13 08:58:02;;;;;;;7.55;1.75;;;30.80;99.90;;;;;;5029244;28;20409;-74
2023/10/13 09:00:55;;;;;;;7.38;1.80;;;30.60;99.90;;;;;;5030171;28;20407;-74
2023/10/13 09:03:28;;;;;;;5.82;1.60;;;30.90;99.90;;;;;;5029053;28;20486;-74
2023/10/13 09:06:06;;;;;;;6.40;1.90;;;31.30;99.90;;;;;;5029411;28;20470;-74
2023/10/13 09:08:35;;;;;;;7.97;2.22;;;31.20;99.90;;;;;;5037739;28;20413;-74
2023/10/13 09:11:12;;;;;;;9.18;1.73;;;30.60;99.90;;;;;;5049328;28;20389;-74
2023/10/13 09:13:44;;;;;;;7.35;2.20;;;30.90;99.90;;;;;;5048730;28;20402;-74
2023/10/13 09:16:17;;;;;;;6.32;1.33;;;31.10;99.90;;;;;;5041072;28;20431;-74
2023/10/13 09:18:52;;;;;;;7.43;2.10;;;31.00;99.90;;;;;;5028319;28;20434;-74
2023/10/13 09:21:47;;;;;;;7.22;1.60;;;31.20;99.90;;;;;;5029011;28;20391;-74
2023/10/13 09:24:26;;;;;;;8.23;1.70;;;31.20;99.90;;;;;;5028924;28;20506;-74
2023/10/13 09:26:55;;;;;;;5.80;1.60;;;31.30;99.90;;;;;;5028975;28;20395;-74
2023/10/13 09:29:21;;;;;;;14.05;1.80;;;31.30;99.90;;;;;;5029077;28;20403;-74
2023/10/13 09:31:59;;;;;;;6.97;1.90;;;31.70;99.90;;;;;;5028628;28;20449;-74
2023/10/13 09:34:29;;;;;;;7.13;2.38;;;32.00;99.90;;;;;;5029150;28;20375;-74
2023/10/13 09:36:58;;;;;;;6.90;1.90;;;31.50;99.90;;;;;;5028922;28;20406;-74
2023/10/13 09:39:40;;;;;;;14.73;2.40;;;31.70;99.90;;;;;;5029021;28;20379;-74
2023/10/13 09:42:10;;;;;;;6.68;1.50;;;31.60;99.90;;;;;;5029180;28;20395;-74
2023/10/13 09:44:37;;;;;;;5.78;1.45;;;31.80;99.90;;;;;;5028858;28;20422;-74
2023/10/13 09:47:16;;;;;;;11.15;1.60;;;30.90;99.90;;;;;;5029200;28;20471;-74
2023/10/13 09:49:51;;;;;;;7.75;1.92;;;31.10;99.90;;;;;;5029088;28;20387;-74
2023/10/13 09:52:25;;;;;;;7.03;1.58;;;31.20;99.90;;;;;;5029233;28;20486;-74
2023/10/13 09:55:00;;;;;;;8.50;2.00;;;31.70;99.90;;;;;;5029103;28;20429;-74
2023/10/13 09:57:34;;;;;;;7.17;1.93;;;31.60;99.90;;;;;;5029223;28;20720;-74
2023/10/13 10:00:44;;;;;;;5.78;1.42;;;32.10;99.90;;;;;;5027854;28;20493;-74
2023/10/13 10:03:43;;;;;;;14.90;1.80;;;32.10;99.90;;;;;;5028982;28;20407;-74
2023/10/13 10:06:03;;;;;;;6.75;1.83;;;33.20;99.90;;;;;;5027770;28;20469;-74
2023/10/13 10:08:33;;;;;;;7.38;1.60;;;34.00;99.90;;;;;;5029290;28;20471;-74
2023/10/13 10:11:20;;;;;;;6.75;1.73;;;34.00;99.90;;;;;;5028696;28;20399;-74
2023/10/13 10:14:05;;;;;;;10.35;2.22;;;33.60;99.90;;;;;;5028672;28;20738;-74
2023/10/13 10:17:07;;;;;;;8.25;1.88;;;33.80;99.90;;;;;;5028662;28;20473;-74
2023/10/13 10:19:35;;;;;;;5.80;1.30;;;33.00;99.90;;;;;;5028594;28;20410;-74
2023/10/13 10:22:16;;;;;;;8.10;1.53;;;33.50;99.90;;;;;;5031838;28;20384;-74
2023/10/13 10:24:42;;;;;;;8.30;1.95;;;33.00;99.90;;;;;;5032132;28;20773;-74
2023/10/13 10:27:08;;;;;;;6.65;2.20;;;32.70;99.90;;;;;;5032241;28;20398;-74
2023/10/13 10:29:34;;;;;;;8.20;1.70;;;31.80;99.90;;;;;;5030562;28;20407;-74
2023/10/13 10:31:59;;;;;;;10.75;1.67;;;30.50;99.90;;;;;;5031790;28;20501;-73
2023/10/13 10:34:32;;;;;;;7.57;2.00;;;30.10;99.90;;;;;;5032308;28;20915;-73
2023/10/13 10:36:59;;;;;;;13.77;2.28;;;29.90;99.90;;;;;;5032513;28;20792;-73
2023/10/13 10:39:57;;;;;;;9.40;1.80;;;30.20;99.90;;;;;;5032340;28;20395;-73
2023/10/13 10:42:23;;;;;;;8.88;1.40;;;30.40;99.90;;;;;;5031331;28;20410;-73
2023/10/13 10:44:55;;;;;;;5.72;1.45;;;31.10;99.90;;;;;;5029292;28;20875;-73
2023/10/13 10:47:36;;;;;;;7.18;2.25;;;31.70;99.90;;;;;;5031826;28;20400;-73
2023/10/13 10:50:20;;;;;;;8.02;1.75;;;31.70;99.90;;;;;;5044890;28;20374;-73
2023/10/13 10:52:46;;;;;;;7.22;1.35;;;30.60;99.90;;;;;;5051248;28;20421;-73
2023/10/13 10:55:13;;;;;;;7.83;1.90;;;30.60;99.90;;;;;;5051847;28;20451;-73
2023/10/13 10:57:43;;;;;;;6.90;1.50;;;30.70;99.90;;;;;;5051586;28;20385;-74
2023/10/13 11:00:19;;;;;;;10.57;2.00;;;30.10;99.90;;;;;;5051245;28;20826;-73
2023/10/13 11:02:56;;;;;;;6.45;1.40;;;30.30;99.90;;;;;;5034241;28;20441;-75
2023/10/13 11:05:24;;;;;;;7.28;2.00;;;30.00;99.90;;;;;;5031114;28;20749;-73
2023/10/13 11:07:53;;;;;;;11.10;1.90;;;29.70;99.90;;;;;;5031153;28;20429;-73
2023/10/13 11:10:28;;;;;;;7.77;2.23;;;29.50;99.90;;;;;;5031596;28;20410;-72
2023/10/13 11:13:15;;;;;;;9.35;2.20;;;29.00;99.90;;;;;;5030374;28;20449;-73
2023/10/13 11:15:45;;;;;;;7.88;1.80;;;28.70;99.90;;;;;;5027284;28;20478;-73
2023/10/13 11:18:16;;;;;;;7.10;1.55;;;28.90;99.90;;;;;;5012369;28;20416;-72
2023/10/13 11:20:45;;;;;;;9.10;1.70;;;29.30;99.90;;;;;;5030807;28;20943;-73
2023/10/13 11:23:12;;;;;;;7.97;1.85;;;29.70;99.90;;;;;;5023613;28;20418;-73
2023/10/13 11:25:38;;;;;;;7.10;2.20;;;29.70;99.90;;;;;;5030959;28;20427;-72
2023/10/13 11:28:18;;;;;;;6.57;2.03;;;30.00;99.90;;;;;;5030993;28;20819;-72
2023/10/13 11:30:52;;;;;;;7.35;2.10;;;30.50;99.90;;;;;;5030943;28;20458;-72
2023/10/13 11:33:20;;;;;;;8.13;2.30;;;30.80;99.90;;;;;;5029366;28;20909;-73
2023/10/13 11:35:49;;;;;;;7.80;1.73;;;30.50;99.90;;;;;;5029214;28;20917;-73
2023/10/13 11:38:26;;;;;;;9.70;1.90;;;30.40;99.90;;;;;;5030572;28;20885;-73
2023/10/13 11:41:16;;;;;;;6.75;1.70;;;30.00;99.90;;;;;;5028308;28;20398;-73
2023/10/13 11:51:39;;;;;;;7.60;1.90;;;30.50;99.90;;;;;;5029634;28;20395;-72
2023/10/13 11:54:06;;;;;;;7.18;1.85;;;30.40;99.90;;;;;;5030299;28;20414;-72
2023/10/13 11:56:31;;;;;;;9.80;2.00;;;30.30;99.90;;;;;;5031020;28;20388;-72
2023/10/13 11:59:01;;;;;;;7.97;2.10;;;30.50;99.90;;;;;;5030157;28;20410;-72
2023/10/13 12:04:32;;;;;;;7.10;1.70;;;30.80;99.90;;;;;;5030783;28;20395;-72
2023/10/13 12:04:34;;;;;;;8.30;2.00;;;31.00;99.90;;;;;;5029913;28;20437;-73
2023/10/13 12:12:25;;;;;;;8.95;1.48;;;30.70;99.90;;;;;;5029467;28;20407;-73
2023/10/13 12:14:57;;;;;;;5.80;1.10;;;30.80;99.90;;;;;;5030635;28;20789;-73
2023/10/13 12:17:39;;;;;;;6.25;1.33;;;30.60;99.90;;;;;;5012386;28;20405;-74
2023/10/13 12:20:09;;;;;;;8.23;1.60;;;30.50;99.90;;;;;;5022023;28;20415;-74
2023/10/13 12:22:51;;;;;;;7.50;2.28;;;30.60;99.90;;;;;;5029505;28;20436;-74
2023/10/13 12:25:34;;;;;;;8.30;2.50;;;30.60;99.90;;;;;;5029391;28;20812;-74
2023/10/13 12:28:12;;;;;;;8.90;1.80;;;30.80;99.90;;;;;;5028864;28;20522;-74
2023/10/13 12:30:52;;;;;;;8.45;2.10;;;30.90;99.90;;;;;;5029998;28;20395;-73
2023/10/13 12:33:25;;;;;;;7.70;1.40;;;30.80;99.90;;;;;;5029608;28;20448;-74
2023/10/13 12:52:16;;;;;;;6.85;1.70;;;30.20;99.90;;;;;;5028346;28;20431;-74
2023/10/13 12:54:47;;;;;;;8.70;1.52;;;30.00;99.90;;;;;;5029169;28;20760;-74
2023/10/13 12:57:15;;;;;;;7.17;1.67;;;29.90;99.90;;;;;;5029685;28;20395;-74
2023/10/13 12:59:42;;;;;;;6.73;2.13;;;30.00;99.90;;;;;;5029213;28;20486;-74
2023/10/13 13:02:14;;;;;;;9.20;2.45;;;30.20;99.90;;;;;;5035060;28;20495;-74
2023/10/13 13:04:44;;;;;;;7.18;1.90;;;30.20;99.90;;;;;;5047700;28;20431;-74
2023/10/13 13:07:13;;;;;;;6.90;1.70;;;30.60;99.90;;;;;;5034730;28;20873;-74
2023/10/13 13:09:43;;;;;;;11.48;2.35;;;30.90;99.90;;;;;;5029117;28;20485;-73
2023/10/13 13:12:12;;;;;;;5.70;1.65;;;31.10;99.90;;;;;;5028926;28;20797;-73
2023/10/13 13:14:40;;;;;;;6.30;2.00;;;31.10;99.90;;;;;;5029204;28;20407;-74
2023/10/13 13:17:06;;;;;;;9.65;1.90;;;31.20;99.90;;;;;;5028040;28;20494;-74
2023/10/13 13:19:38;;;;;;;7.40;1.70;;;31.60;99.90;;;;;;5040052;28;20464;-74
2023/10/13 13:22:17;;;;;;;8.73;1.88;;;31.70;99.90;;;;;;5043857;28;20901;-73
2023/10/13 13:24:44;;;;;;;7.93;1.20;;;31.40;99.90;;;;;;5027748;28;20430;-74
2023/10/13 13:27:14;;;;;;;9.05;1.85;;;31.20;99.90;;;;;;5025112;28;20410;-74
2023/10/13 13:29:46;;;;;;;5.85;1.65;;;31.20;99.90;;;;;;5026888;28;20399;-74
2023/10/13 13:32:24;;;;;;;6.00;1.90;;;31.20;99.90;;;;;;5026265;28;20415;-74
2023/10/13 13:35:13;;;;;;;5.88;1.42;;;31.00;99.90;;;;;;5027994;28;20420;-74
2023/10/13 13:37:39;;;;;;;6.25;1.33;;;31.10;99.90;;;;;;5021253;28;20908;-78
2023/10/13 13:40:14;;;;;;;7.00;1.50;;;31.20;99.90;;;;;;5030842;28;20506;-79
2023/10/13 13:42:44;;;;;;;7.18;1.50;;;31.10;99.90;;;;;;5034367;28;20461;-79
2023/10/13 13:45:27;;;;;;;6.50;1.80;;;31.00;99.90;;;;;;5038467;28;21077;-80
2023/10/13 13:47:53;;;;;;;7.95;1.30;;;30.80;99.90;;;;;;5038238;28;21275;-80
2023/10/13 13:50:24;;;;;;;6.25;1.60;;;30.80;99.90;;;;;;5037475;28;20410;-79
2023/10/13 13:52:52;;;;;;;5.80;1.50;;;30.80;99.90;;;;;;5027391;28;20429;-78
2023/10/13 13:55:19;;;;;;;11.00;1.80;;;30.90;99.90;;;;;;5034031;28;20444;-79
2023/10/13 13:57:44;;;;;;;6.05;1.70;;;30.80;99.90;;;;;;5034513;28;21136;-79
2023/10/13 14:00:16;;;;;;;7.47;1.90;;;30.60;99.90;;;;;;5033522;28;20411;-76
2023/10/13 14:02:47;;;;;;;7.90;1.83;;;30.60;99.90;;;;;;5034437;28;20387;-78
2023/10/13 14:05:15;;;;;;;6.13;1.50;;;30.40;99.90;;;;;;5030134;28;20434;-77
2023/10/13 14:07:48;;;;;;;7.22;1.50;;;30.30;99.90;;;;;;5030734;28;20418;-77
2023/10/13 14:10:31;;;;;;;8.00;1.75;;;30.40;99.90;;;;;;5032042;28;20406;-78
2023/10/13 14:13:06;;;;;;;6.00;1.45;;;30.40;99.90;;;;;;5031756;28;20379;-78
2023/10/13 14:15:40;;;;;;;8.20;2.15;;;30.50;99.90;;;;;;5030019;28;20746;-73
2023/10/13 14:18:07;;;;;;;6.50;1.50;;;30.40;99.90;;;;;;5033541;28;20472;-78
2023/10/13 14:20:39;;;;;;;5.60;1.50;;;30.30;99.90;;;;;;5032408;28;20393;-78
2023/10/13 14:23:07;;;;;;;5.40;1.40;;;30.60;99.90;;;;;;5032461;28;20383;-78
2023/10/13 14:25:37;;;;;;;7.78;1.80;;;30.40;99.90;;;;;;5032637;28;20435;-78
2023/10/13 14:28:04;;;;;;;5.78;1.42;;;30.40;99.90;;;;;;5031779;28;20426;-78
2023/10/13 14:30:31;;;;;;;6.30;1.60;;;30.40;99.90;;;;;;5034309;28;20405;-77
2023/10/13 14:32:58;;;;;;;6.78;1.60;;;30.30;99.90;;;;;;5035332;28;20482;-77
2023/10/13 14:35:25;;;;;;;5.40;1.30;;;30.20;99.90;;;;;;5047663;28;20484;-75
2023/10/13 14:37:51;;;;;;;6.22;1.40;;;29.90;99.90;;;;;;5051922;28;20476;-75
2023/10/13 14:40:21;;;;;;;7.90;2.15;;;29.90;99.90;;;;;;5052122;28;20401;-76
2023/10/13 14:42:47;;;;;;;8.20;1.33;;;29.80;99.90;;;;;;5051896;28;20388;-76
2023/10/13 14:45:13;;;;;;;6.45;1.70;;;29.70;99.90;;;;;;5052093;28;20483;-76
2023/10/13 14:47:40;;;;;;;6.20;1.40;;;29.60;99.90;;;;;;5053205;28;20393;-76
2023/10/13 14:50:06;;;;;;;6.70;1.20;;;29.60;99.90;;;;;;5052755;28;20480;-76
2023/10/13 14:52:31;;;;;;;8.02;1.90;;;29.50;99.90;;;;;;5047791;28;20383;-76
2023/10/13 14:55:00;;;;;;;5.50;1.30;;;29.50;99.90;;;;;;5031371;28;20889;-77
2023/10/13 14:57:25;;;;;;;6.40;1.40;;;29.50;99.90;;;;;;5034021;28;20478;-77
2023/10/13 14:59:54;;;;;;;7.80;2.00;;;29.40;99.90;;;;;;5032399;28;20534;-76
2023/10/13 15:02:21;;;;;;;10.98;2.45;;;29.30;99.90;;;;;;5030597;28;20399;-70
2023/10/13 15:04:48;;;;;;;6.75;2.25;;;29.20;99.90;;;;;;5031432;28;20426;-71
2023/10/13 15:07:15;;;;;;;6.72;1.70;;;29.20;99.90;;;;;;5030402;28;20868;-70
2023/10/13 15:09:42;;;;;;;6.78;1.80;;;29.20;99.90;;;;;;5030727;28;20419;-70
2023/10/13 15:12:10;;;;;;;5.70;1.70;;;29.10;99.90;;;;;;5049065;28;20385;-70
2023/10/13 15:14:42;;;;;;;5.22;1.10;;;29.20;99.90;;;;;;5051394;28;21012;-70
2023/10/13 15:17:10;;;;;;;8.40;1.70;;;29.20;99.90;;;;;;5035647;28;20383;-70
2023/10/13 15:19:38;;;;;;;8.60;2.00;;;29.30;99.90;;;;;;5031634;28;20419;-71
2023/10/13 15:22:06;;;;;;;6.60;1.50;;;29.20;99.90;;;;;;5029768;28;20410;-71
2023/10/13 15:24:41;;;;;;;6.50;1.50;;;29.10;99.90;;;;;;5011585;28;20421;-71
2023/10/13 15:27:08;;;;;;;6.32;1.33;;;29.10;99.90;;;;;;5020932;28;20494;-70
2023/10/13 15:29:37;;;;;;;6.65;1.13;;;29.00;99.90;;;;;;5030539;28;20907;-71
2023/10/13 15:34:29;;;;;;;5.47;1.10;;;28.90;99.90;;;;;;5030660;28;20391;-71
2023/10/13 15:36:56;;;;;;;8.10;1.60;;;28.90;99.90;;;;;;5030487;28;20750;-71
2023/10/13 15:39:31;;;;;;;6.30;1.40;;;28.70;99.90;;;;;;5030159;28;20810;-71
2023/10/13 15:42:02;;;;;;;7.37;1.60;;;28.70;99.90;;;;;;5028372;28;20383;-71
2023/10/13 15:44:30;;;;;;;9.70;1.70;;;28.60;99.90;;;;;;5030116;28;20419;-70
2023/10/13 15:46:57;;;;;;;8.13;1.75;;;28.50;99.90;;;;;;5030431;28;20391;-70
2023/10/13 15:49:24;;;;;;;7.00;1.70;;;28.40;99.90;;;;;;5029737;28;20415;-71
2023/10/13 15:51:50;;;;;;;7.80;2.40;;;28.20;99.90;;;;;;5029587;28;20437;-70
2023/10/13 15:54:17;;;;;;;6.15;1.30;;;28.10;99.90;;;;;;5029877;28;20726;-70
2023/10/13 15:56:47;;;;;;;10.52;2.15;;;28.00;99.90;;;;;;5030035;28;20722;-71
2023/10/13 15:59:13;;;;;;;6.88;1.85;;;27.80;99.90;;;;;;5028480;28;20670;-70
2023/10/13 16:01:40;;;;;;;7.93;1.77;;;27.70;99.90;;;;;;5029580;28;20396;-70